sensor_id;sensor_type;location;lat;lon;timestamp;temperature;humidity
12413;DHT22;13877;18.896;-99.222;2022-07-29T00:01:44;31.20;49.30
12413;DHT22;13877;18.896;-99.222;2022-07-29T00:04:11;31.20;50.00
12413;DHT22;13877;18.896;-99.222;2022-07-29T00:06:38;31.30;52.60
12413;DHT22;13877;18.896;-99.222;2022-07-29T00:09:06;31.50;48.20
12413;DHT22;13877;18.896;-99.222;2022-07-29T00:11:33;31.00;48.80
12413;DHT22;13877;18.896;-99.222;2022-07-29T00:14:00;30.80;48.50
12413;DHT22;13877;18.896;-99.222;2022-07-29T00:16:27;30.50;50.30
12413;DHT22;13877;18.896;-99.222;2022-07-29T00:18:53;30.40;49.60
12413;DHT22;13877;18.896;-99.222;2022-07-29T00:21:20;29.30;51.10
12413;DHT22;13877;18.896;-99.222;2022-07-29T00:23:47;28.00;53.50
12413;DHT22;13877;18.896;-99.222;2022-07-29T00:26:14;27.00;55.30
12413;DHT22;13877;18.896;-99.222;2022-07-29T00:28:41;26.40;57.90
12413;DHT22;13877;18.896;-99.222;2022-07-29T00:31:08;26.00;60.00
12413;DHT22;13877;18.896;-99.222;2022-07-29T00:33:35;25.70;61.60
12413;DHT22;13877;18.896;-99.222;2022-07-29T00:36:01;25.50;60.90
12413;DHT22;13877;18.896;-99.222;2022-07-29T00:38:28;25.20;61.80
12413;DHT22;13877;18.896;-99.222;2022-07-29T00:40:55;25.10;61.00
12413;DHT22;13877;18.896;-99.222;2022-07-29T00:43:22;25.00;61.70
12413;DHT22;13877;18.896;-99.222;2022-07-29T00:45:49;24.90;64.30
12413;DHT22;13877;18.896;-99.222;2022-07-29T00:48:15;24.70;63.70
12413;DHT22;13877;18.896;-99.222;2022-07-29T00:50:43;24.60;63.90
12413;DHT22;13877;18.896;-99.222;2022-07-29T00:53:12;24.50;64.90
12413;DHT22;13877;18.896;-99.222;2022-07-29T00:55:39;24.40;65.30
12413;DHT22;13877;18.896;-99.222;2022-07-29T00:58:06;24.40;65.80
12413;DHT22;13877;18.896;-99.222;2022-07-29T01:00:33;24.30;67.40
12413;DHT22;13877;18.896;-99.222;2022-07-29T01:03:00;24.20;67.50
12413;DHT22;13877;18.896;-99.222;2022-07-29T01:05:28;24.20;66.50
12413;DHT22;13877;18.896;-99.222;2022-07-29T01:07:57;24.20;67.00
12413;DHT22;13877;18.896;-99.222;2022-07-29T01:10:25;24.20;66.40
12413;DHT22;13877;18.896;-99.222;2022-07-29T01:12:54;24.10;66.20
12413;DHT22;13877;18.896;-99.222;2022-07-29T01:15:22;24.00;68.10
12413;DHT22;13877;18.896;-99.222;2022-07-29T01:18:04;23.90;67.00
12413;DHT22;13877;18.896;-99.222;2022-07-29T01:23:47;23.80;69.50
12413;DHT22;13877;18.896;-99.222;2022-07-29T01:32:08;23.50;78.20
12413;DHT22;13877;18.896;-99.222;2022-07-29T01:34:41;23.30;81.50
12413;DHT22;13877;18.896;-99.222;2022-07-29T01:37:23;23.30;83.00
12413;DHT22;13877;18.896;-99.222;2022-07-29T01:39:54;23.20;84.90
12413;DHT22;13877;18.896;-99.222;2022-07-29T01:42:29;23.30;86.10
12413;DHT22;13877;18.896;-99.222;2022-07-29T01:49:15;23.20;87.60
12413;DHT22;13877;18.896;-99.222;2022-07-29T01:51:20;23.20;88.20
12413;DHT22;13877;18.896;-99.222;2022-07-29T01:53:57;23.20;89.60
12413;DHT22;13877;18.896;-99.222;2022-07-29T01:56:28;23.10;90.20
12413;DHT22;13877;18.896;-99.222;2022-07-29T01:58:57;22.90;90.20
12413;DHT22;13877;18.896;-99.222;2022-07-29T02:01:26;22.80;90.70
12413;DHT22;13877;18.896;-99.222;2022-07-29T02:03:55;22.70;91.20
12413;DHT22;13877;18.896;-99.222;2022-07-29T02:06:24;22.60;91.50
12413;DHT22;13877;18.896;-99.222;2022-07-29T02:08:52;22.50;91.30
12413;DHT22;13877;18.896;-99.222;2022-07-29T02:11:20;22.50;91.20
12413;DHT22;13877;18.896;-99.222;2022-07-29T02:13:47;22.50;90.30
12413;DHT22;13877;18.896;-99.222;2022-07-29T02:16:17;22.50;90.60
12413;DHT22;13877;18.896;-99.222;2022-07-29T02:18:49;22.50;90.30
12413;DHT22;13877;18.896;-99.222;2022-07-29T02:21:21;22.40;90.30
12413;DHT22;13877;18.896;-99.222;2022-07-29T02:23:51;22.30;90.10
12413;DHT22;13877;18.896;-99.222;2022-07-29T02:26:23;22.30;89.80
12413;DHT22;13877;18.896;-99.222;2022-07-29T02:28:53;22.20;90.40
12413;DHT22;13877;18.896;-99.222;2022-07-29T02:31:24;22.00;90.40
12413;DHT22;13877;18.896;-99.222;2022-07-29T02:33:52;22.00;90.50
12413;DHT22;13877;18.896;-99.222;2022-07-29T02:36:22;21.90;90.80
12413;DHT22;13877;18.896;-99.222;2022-07-29T02:38:50;21.80;91.10
12413;DHT22;13877;18.896;-99.222;2022-07-29T02:41:23;21.70;91.60
12413;DHT22;13877;18.896;-99.222;2022-07-29T02:43:55;21.60;92.10
12413;DHT22;13877;18.896;-99.222;2022-07-29T02:46:30;21.60;91.70
12413;DHT22;13877;18.896;-99.222;2022-07-29T02:51:49;22.00;91.70
12413;DHT22;13877;18.896;-99.222;2022-07-29T02:57:14;22.30;91.90
12413;DHT22;13877;18.896;-99.222;2022-07-29T02:59:45;22.30;92.20
12413;DHT22;13877;18.896;-99.222;2022-07-29T03:02:14;22.30;93.10
12413;DHT22;13877;18.896;-99.222;2022-07-29T03:04:43;22.40;93.30
12413;DHT22;13877;18.896;-99.222;2022-07-29T03:07:13;22.40;93.00
12413;DHT22;13877;18.896;-99.222;2022-07-29T03:09:41;22.40;93.10
12413;DHT22;13877;18.896;-99.222;2022-07-29T03:12:09;22.40;93.20
12413;DHT22;13877;18.896;-99.222;2022-07-29T03:14:37;22.30;93.30
12413;DHT22;13877;18.896;-99.222;2022-07-29T03:17:04;22.30;93.50
12413;DHT22;13877;18.896;-99.222;2022-07-29T03:19:32;22.30;93.20
12413;DHT22;13877;18.896;-99.222;2022-07-29T03:21:59;22.30;93.10
12413;DHT22;13877;18.896;-99.222;2022-07-29T03:24:32;22.20;93.40
12413;DHT22;13877;18.896;-99.222;2022-07-29T03:26:59;22.20;93.40
12413;DHT22;13877;18.896;-99.222;2022-07-29T03:29:27;22.20;93.20
12413;DHT22;13877;18.896;-99.222;2022-07-29T03:31:54;22.30;93.00
12413;DHT22;13877;18.896;-99.222;2022-07-29T03:34:21;22.20;93.10
12413;DHT22;13877;18.896;-99.222;2022-07-29T03:36:48;21.90;93.50
12413;DHT22;13877;18.896;-99.222;2022-07-29T03:39:20;21.60;93.90
12413;DHT22;13877;18.896;-99.222;2022-07-29T03:41:51;21.50;94.60
12413;DHT22;13877;18.896;-99.222;2022-07-29T03:44:19;21.40;95.30
12413;DHT22;13877;18.896;-99.222;2022-07-29T03:46:49;21.30;94.60
12413;DHT22;13877;18.896;-99.222;2022-07-29T03:49:18;21.40;94.70
12413;DHT22;13877;18.896;-99.222;2022-07-29T03:51:47;21.40;94.60
12413;DHT22;13877;18.896;-99.222;2022-07-29T03:54:14;21.50;94.60
12413;DHT22;13877;18.896;-99.222;2022-07-29T03:56:43;21.50;94.40
12413;DHT22;13877;18.896;-99.222;2022-07-29T03:59:15;21.50;94.20
12413;DHT22;13877;18.896;-99.222;2022-07-29T04:01:43;21.60;94.40
12413;DHT22;13877;18.896;-99.222;2022-07-29T04:04:11;21.70;94.00
12413;DHT22;13877;18.896;-99.222;2022-07-29T04:06:41;21.90;94.30
12413;DHT22;13877;18.896;-99.222;2022-07-29T04:09:09;22.00;93.80
12413;DHT22;13877;18.896;-99.222;2022-07-29T04:11:40;22.10;93.90
12413;DHT22;13877;18.896;-99.222;2022-07-29T04:14:07;22.20;93.90
12413;DHT22;13877;18.896;-99.222;2022-07-29T04:16:34;22.10;93.90
12413;DHT22;13877;18.896;-99.222;2022-07-29T04:19:01;22.10;93.90
12413;DHT22;13877;18.896;-99.222;2022-07-29T04:21:28;22.10;93.90
12413;DHT22;13877;18.896;-99.222;2022-07-29T04:23:55;22.00;93.70
12413;DHT22;13877;18.896;-99.222;2022-07-29T04:26:22;21.90;93.70
12413;DHT22;13877;18.896;-99.222;2022-07-29T04:28:48;21.90;93.80
12413;DHT22;13877;18.896;-99.222;2022-07-29T04:31:15;21.80;94.40
12413;DHT22;13877;18.896;-99.222;2022-07-29T04:33:43;21.70;94.50
12413;DHT22;13877;18.896;-99.222;2022-07-29T04:36:10;21.70;95.20
12413;DHT22;13877;18.896;-99.222;2022-07-29T04:38:38;21.60;95.00
12413;DHT22;13877;18.896;-99.222;2022-07-29T04:41:05;21.50;95.30
12413;DHT22;13877;18.896;-99.222;2022-07-29T04:43:34;21.40;95.50
12413;DHT22;13877;18.896;-99.222;2022-07-29T04:46:01;21.50;96.30
12413;DHT22;13877;18.896;-99.222;2022-07-29T04:48:29;21.50;96.70
12413;DHT22;13877;18.896;-99.222;2022-07-29T04:50:56;21.50;96.70
12413;DHT22;13877;18.896;-99.222;2022-07-29T04:53:24;21.50;96.20
12413;DHT22;13877;18.896;-99.222;2022-07-29T04:55:51;21.60;96.50
12413;DHT22;13877;18.896;-99.222;2022-07-29T04:58:18;21.70;96.50
12413;DHT22;13877;18.896;-99.222;2022-07-29T05:00:45;21.70;96.90
12413;DHT22;13877;18.896;-99.222;2022-07-29T05:03:12;21.70;97.40
12413;DHT22;13877;18.896;-99.222;2022-07-29T05:05:38;21.70;96.80
12413;DHT22;13877;18.896;-99.222;2022-07-29T05:08:06;21.70;96.40
12413;DHT22;13877;18.896;-99.222;2022-07-29T05:10:33;21.70;96.20
12413;DHT22;13877;18.896;-99.222;2022-07-29T05:13:05;21.60;96.30
12413;DHT22;13877;18.896;-99.222;2022-07-29T05:15:33;21.60;96.00
12413;DHT22;13877;18.896;-99.222;2022-07-29T05:18:01;21.60;96.10
12413;DHT22;13877;18.896;-99.222;2022-07-29T05:20:28;21.50;96.30
12413;DHT22;13877;18.896;-99.222;2022-07-29T05:22:59;21.40;96.50
12413;DHT22;13877;18.896;-99.222;2022-07-29T05:25:28;21.40;96.50
12413;DHT22;13877;18.896;-99.222;2022-07-29T05:27:55;21.50;96.30
12413;DHT22;13877;18.896;-99.222;2022-07-29T05:30:23;21.50;96.00
12413;DHT22;13877;18.896;-99.222;2022-07-29T05:32:49;21.70;95.20
12413;DHT22;13877;18.896;-99.222;2022-07-29T05:35:16;21.70;94.90
12413;DHT22;13877;18.896;-99.222;2022-07-29T05:37:43;21.70;94.40
12413;DHT22;13877;18.896;-99.222;2022-07-29T05:40:10;21.70;95.10
12413;DHT22;13877;18.896;-99.222;2022-07-29T05:42:37;21.70;94.50
12413;DHT22;13877;18.896;-99.222;2022-07-29T05:45:04;21.70;95.10
12413;DHT22;13877;18.896;-99.222;2022-07-29T05:47:31;21.70;94.70
12413;DHT22;13877;18.896;-99.222;2022-07-29T05:49:59;21.80;94.00
12413;DHT22;13877;18.896;-99.222;2022-07-29T05:52:25;21.80;93.80
12413;DHT22;13877;18.896;-99.222;2022-07-29T05:54:53;21.90;93.80
12413;DHT22;13877;18.896;-99.222;2022-07-29T05:57:22;21.80;94.50
12413;DHT22;13877;18.896;-99.222;2022-07-29T05:59:50;21.80;94.60
12413;DHT22;13877;18.896;-99.222;2022-07-29T06:02:18;21.80;95.30
12413;DHT22;13877;18.896;-99.222;2022-07-29T06:04:45;21.70;95.40
12413;DHT22;13877;18.896;-99.222;2022-07-29T06:07:12;21.70;94.30
12413;DHT22;13877;18.896;-99.222;2022-07-29T06:09:39;21.80;93.90
12413;DHT22;13877;18.896;-99.222;2022-07-29T06:12:06;21.80;94.20
12413;DHT22;13877;18.896;-99.222;2022-07-29T06:14:33;21.90;95.10
12413;DHT22;13877;18.896;-99.222;2022-07-29T06:17:00;21.80;95.10
12413;DHT22;13877;18.896;-99.222;2022-07-29T06:19:27;21.70;94.70
12413;DHT22;13877;18.896;-99.222;2022-07-29T06:21:53;21.70;94.90
12413;DHT22;13877;18.896;-99.222;2022-07-29T06:24:20;21.80;94.90
12413;DHT22;13877;18.896;-99.222;2022-07-29T06:26:47;21.80;95.70
12413;DHT22;13877;18.896;-99.222;2022-07-29T06:29:14;21.80;95.60
12413;DHT22;13877;18.896;-99.222;2022-07-29T06:31:41;21.70;95.50
12413;DHT22;13877;18.896;-99.222;2022-07-29T06:34:08;21.80;94.80
12413;DHT22;13877;18.896;-99.222;2022-07-29T06:36:38;21.90;94.90
12413;DHT22;13877;18.896;-99.222;2022-07-29T06:39:06;21.90;95.30
12413;DHT22;13877;18.896;-99.222;2022-07-29T06:41:33;21.90;95.70
12413;DHT22;13877;18.896;-99.222;2022-07-29T06:44:08;21.80;95.40
12413;DHT22;13877;18.896;-99.222;2022-07-29T06:46:36;21.80;95.10
12413;DHT22;13877;18.896;-99.222;2022-07-29T06:49:03;21.70;95.50
12413;DHT22;13877;18.896;-99.222;2022-07-29T06:51:30;21.60;96.50
12413;DHT22;13877;18.896;-99.222;2022-07-29T06:53:57;21.30;98.20
12413;DHT22;13877;18.896;-99.222;2022-07-29T06:56:24;21.00;99.90
12413;DHT22;13877;18.896;-99.222;2022-07-29T06:58:51;20.50;99.90
12413;DHT22;13877;18.896;-99.222;2022-07-29T07:01:18;20.00;99.90
12413;DHT22;13877;18.896;-99.222;2022-07-29T07:03:45;19.70;99.90
12413;DHT22;13877;18.896;-99.222;2022-07-29T07:06:14;19.60;99.90
12413;DHT22;13877;18.896;-99.222;2022-07-29T07:08:41;19.50;99.90
12413;DHT22;13877;18.896;-99.222;2022-07-29T07:11:08;19.40;99.90
12413;DHT22;13877;18.896;-99.222;2022-07-29T07:13:35;19.30;99.90
12413;DHT22;13877;18.896;-99.222;2022-07-29T07:16:02;19.20;99.90
12413;DHT22;13877;18.896;-99.222;2022-07-29T07:18:30;19.10;99.90
12413;DHT22;13877;18.896;-99.222;2022-07-29T07:20:57;19.10;99.90
12413;DHT22;13877;18.896;-99.222;2022-07-29T07:23:24;19.00;99.90
12413;DHT22;13877;18.896;-99.222;2022-07-29T07:25:51;19.00;99.90
12413;DHT22;13877;18.896;-99.222;2022-07-29T07:28:19;19.00;99.90
12413;DHT22;13877;18.896;-99.222;2022-07-29T07:30:46;19.00;99.90
12413;DHT22;13877;18.896;-99.222;2022-07-29T07:33:13;19.00;99.90
12413;DHT22;13877;18.896;-99.222;2022-07-29T07:35:42;18.90;99.90
12413;DHT22;13877;18.896;-99.222;2022-07-29T07:38:11;18.90;99.90
12413;DHT22;13877;18.896;-99.222;2022-07-29T07:40:38;18.90;99.90
12413;DHT22;13877;18.896;-99.222;2022-07-29T07:43:05;19.00;99.90
12413;DHT22;13877;18.896;-99.222;2022-07-29T07:45:31;18.90;99.90
12413;DHT22;13877;18.896;-99.222;2022-07-29T07:48:04;18.80;99.90
12413;DHT22;13877;18.896;-99.222;2022-07-29T07:50:31;18.80;99.90
12413;DHT22;13877;18.896;-99.222;2022-07-29T07:52:58;18.70;99.90
12413;DHT22;13877;18.896;-99.222;2022-07-29T07:55:26;18.60;99.90
12413;DHT22;13877;18.896;-99.222;2022-07-29T07:57:54;18.50;99.90
12413;DHT22;13877;18.896;-99.222;2022-07-29T08:00:21;18.40;99.90
12413;DHT22;13877;18.896;-99.222;2022-07-29T08:02:48;18.30;99.90
12413;DHT22;13877;18.896;-99.222;2022-07-29T08:05:16;18.40;99.90
12413;DHT22;13877;18.896;-99.222;2022-07-29T08:07:45;18.40;99.90
12413;DHT22;13877;18.896;-99.222;2022-07-29T08:10:14;18.40;99.90
12413;DHT22;13877;18.896;-99.222;2022-07-29T08:12:41;18.30;99.90
12413;DHT22;13877;18.896;-99.222;2022-07-29T08:15:08;18.30;99.90
12413;DHT22;13877;18.896;-99.222;2022-07-29T08:17:35;18.30;99.90
12413;DHT22;13877;18.896;-99.222;2022-07-29T08:20:03;18.30;99.90
12413;DHT22;13877;18.896;-99.222;2022-07-29T08:22:31;18.30;99.90
12413;DHT22;13877;18.896;-99.222;2022-07-29T08:24:58;18.30;99.90
12413;DHT22;13877;18.896;-99.222;2022-07-29T08:27:25;18.30;99.90
12413;DHT22;13877;18.896;-99.222;2022-07-29T08:29:52;18.20;99.90
12413;DHT22;13877;18.896;-99.222;2022-07-29T08:32:22;18.30;99.90
12413;DHT22;13877;18.896;-99.222;2022-07-29T08:34:49;18.40;99.90
12413;DHT22;13877;18.896;-99.222;2022-07-29T08:37:16;18.30;99.90
12413;DHT22;13877;18.896;-99.222;2022-07-29T08:39:42;18.30;99.90
12413;DHT22;13877;18.896;-99.222;2022-07-29T08:42:11;18.30;99.90
12413;DHT22;13877;18.896;-99.222;2022-07-29T08:44:38;18.20;99.90
12413;DHT22;13877;18.896;-99.222;2022-07-29T08:47:05;18.20;99.90
12413;DHT22;13877;18.896;-99.222;2022-07-29T08:49:35;18.20;99.90
12413;DHT22;13877;18.896;-99.222;2022-07-29T08:52:03;18.20;99.90
12413;DHT22;13877;18.896;-99.222;2022-07-29T08:54:29;18.20;99.90
12413;DHT22;13877;18.896;-99.222;2022-07-29T08:56:58;18.10;99.90
12413;DHT22;13877;18.896;-99.222;2022-07-29T08:59:27;18.00;99.90
12413;DHT22;13877;18.896;-99.222;2022-07-29T09:01:57;18.00;99.90
12413;DHT22;13877;18.896;-99.222;2022-07-29T09:04:34;18.00;99.90
12413;DHT22;13877;18.896;-99.222;2022-07-29T09:07:04;18.00;99.90
12413;DHT22;13877;18.896;-99.222;2022-07-29T09:09:33;18.00;99.90
12413;DHT22;13877;18.896;-99.222;2022-07-29T09:12:00;18.10;99.90
12413;DHT22;13877;18.896;-99.222;2022-07-29T09:14:27;18.00;99.90
12413;DHT22;13877;18.896;-99.222;2022-07-29T09:16:56;18.00;99.90
12413;DHT22;13877;18.896;-99.222;2022-07-29T09:19:25;17.90;99.90
12413;DHT22;13877;18.896;-99.222;2022-07-29T09:21:52;17.90;99.90
12413;DHT22;13877;18.896;-99.222;2022-07-29T09:26:54;17.80;99.90
12413;DHT22;13877;18.896;-99.222;2022-07-29T09:29:23;17.80;99.90
12413;DHT22;13877;18.896;-99.222;2022-07-29T09:31:52;17.80;99.90
12413;DHT22;13877;18.896;-99.222;2022-07-29T09:34:29;17.80;99.90
12413;DHT22;13877;18.896;-99.222;2022-07-29T09:36:57;17.80;99.90
12413;DHT22;13877;18.896;-99.222;2022-07-29T09:39:37;17.90;99.90
12413;DHT22;13877;18.896;-99.222;2022-07-29T09:42:11;17.90;99.90
12413;DHT22;13877;18.896;-99.222;2022-07-29T09:44:49;17.90;99.90
12413;DHT22;13877;18.896;-99.222;2022-07-29T09:47:17;18.00;99.90
12413;DHT22;13877;18.896;-99.222;2022-07-29T09:52:21;18.00;99.90
12413;DHT22;13877;18.896;-99.222;2022-07-29T09:54:48;17.90;99.90
12413;DHT22;13877;18.896;-99.222;2022-07-29T09:57:29;17.90;99.90
12413;DHT22;13877;18.896;-99.222;2022-07-29T10:00:03;17.90;99.90
12413;DHT22;13877;18.896;-99.222;2022-07-29T10:02:40;17.90;99.90
12413;DHT22;13877;18.896;-99.222;2022-07-29T10:05:18;18.00;99.90
12413;DHT22;13877;18.896;-99.222;2022-07-29T10:07:48;18.10;99.90
12413;DHT22;13877;18.896;-99.222;2022-07-29T10:10:28;18.00;99.90
12413;DHT22;13877;18.896;-99.222;2022-07-29T10:12:57;17.90;99.90
12413;DHT22;13877;18.896;-99.222;2022-07-29T10:15:28;17.80;99.90
12413;DHT22;13877;18.896;-99.222;2022-07-29T10:17:56;17.80;99.90
12413;DHT22;13877;18.896;-99.222;2022-07-29T10:20:24;17.80;99.90
12413;DHT22;13877;18.896;-99.222;2022-07-29T10:22:52;17.80;99.90
12413;DHT22;13877;18.896;-99.222;2022-07-29T10:25:20;17.80;99.90
12413;DHT22;13877;18.896;-99.222;2022-07-29T10:27:48;17.90;99.90
12413;DHT22;13877;18.896;-99.222;2022-07-29T10:30:18;17.90;99.90
12413;DHT22;13877;18.896;-99.222;2022-07-29T10:36:04;18.00;99.90
12413;DHT22;13877;18.896;-99.222;2022-07-29T10:39:11;17.90;99.90
12413;DHT22;13877;18.896;-99.222;2022-07-29T10:42:02;18.00;99.90
12413;DHT22;13877;18.896;-99.222;2022-07-29T10:44:33;18.10;99.90
12413;DHT22;13877;18.896;-99.222;2022-07-29T10:47:00;18.20;99.90
12413;DHT22;13877;18.896;-99.222;2022-07-29T10:49:28;18.10;99.90
12413;DHT22;13877;18.896;-99.222;2022-07-29T10:52:05;18.10;99.90
12413;DHT22;13877;18.896;-99.222;2022-07-29T10:54:39;18.00;99.90
12413;DHT22;13877;18.896;-99.222;2022-07-29T10:57:24;18.00;99.90
12413;DHT22;13877;18.896;-99.222;2022-07-29T11:05:07;18.00;99.90
12413;DHT22;13877;18.896;-99.222;2022-07-29T11:07:40;18.00;99.90
12413;DHT22;13877;18.896;-99.222;2022-07-29T11:10:25;18.00;99.90
12413;DHT22;13877;18.896;-99.222;2022-07-29T11:12:52;18.00;99.90
12413;DHT22;13877;18.896;-99.222;2022-07-29T11:15:21;17.90;99.90
12413;DHT22;13877;18.896;-99.222;2022-07-29T11:20:47;17.80;99.90
12413;DHT22;13877;18.896;-99.222;2022-07-29T11:23:32;17.70;99.90
12413;DHT22;13877;18.896;-99.222;2022-07-29T11:31:42;17.70;99.90
12413;DHT22;13877;18.896;-99.222;2022-07-29T11:39:36;17.80;99.90
12413;DHT22;13877;18.896;-99.222;2022-07-29T11:44:59;17.80;99.90
12413;DHT22;13877;18.896;-99.222;2022-07-29T11:47:33;17.90;99.90
12413;DHT22;13877;18.896;-99.222;2022-07-29T11:50:02;17.90;99.90
12413;DHT22;13877;18.896;-99.222;2022-07-29T11:52:40;17.90;99.90
12413;DHT22;13877;18.896;-99.222;2022-07-29T11:55:32;17.90;99.90
12413;DHT22;13877;18.896;-99.222;2022-07-29T11:58:03;17.80;99.90
12413;DHT22;13877;18.896;-99.222;2022-07-29T12:00:38;17.90;99.90
12413;DHT22;13877;18.896;-99.222;2022-07-29T12:03:07;17.90;99.90
12413;DHT22;13877;18.896;-99.222;2022-07-29T12:05:43;18.00;99.90
12413;DHT22;13877;18.896;-99.222;2022-07-29T12:08:21;18.00;99.90
12413;DHT22;13877;18.896;-99.222;2022-07-29T12:10:52;18.00;99.90
12413;DHT22;13877;18.896;-99.222;2022-07-29T12:13:20;18.00;99.90
12413;DHT22;13877;18.896;-99.222;2022-07-29T12:15:54;18.00;99.90
12413;DHT22;13877;18.896;-99.222;2022-07-29T12:18:23;17.90;99.90
12413;DHT22;13877;18.896;-99.222;2022-07-29T12:21:01;17.80;99.90
12413;DHT22;13877;18.896;-99.222;2022-07-29T12:23:32;17.70;99.90
12413;DHT22;13877;18.896;-99.222;2022-07-29T12:25:59;17.70;99.90
12413;DHT22;13877;18.896;-99.222;2022-07-29T12:28:26;17.70;99.90
12413;DHT22;13877;18.896;-99.222;2022-07-29T12:30:53;17.80;99.90
12413;DHT22;13877;18.896;-99.222;2022-07-29T12:33:23;17.80;99.90
12413;DHT22;13877;18.896;-99.222;2022-07-29T12:35:59;17.80;99.90
12413;DHT22;13877;18.896;-99.222;2022-07-29T12:38:27;17.80;99.90
12413;DHT22;13877;18.896;-99.222;2022-07-29T12:40:55;17.90;99.90
12413;DHT22;13877;18.896;-99.222;2022-07-29T12:43:23;18.00;99.90
12413;DHT22;13877;18.896;-99.222;2022-07-29T12:45:54;18.00;99.90
12413;DHT22;13877;18.896;-99.222;2022-07-29T12:48:36;18.00;99.90
12413;DHT22;13877;18.896;-99.222;2022-07-29T12:51:06;18.00;99.90
12413;DHT22;13877;18.896;-99.222;2022-07-29T12:54:10;18.00;99.90
12413;DHT22;13877;18.896;-99.222;2022-07-29T12:56:59;18.10;99.90
12413;DHT22;13877;18.896;-99.222;2022-07-29T12:59:26;18.20;99.90
12413;DHT22;13877;18.896;-99.222;2022-07-29T13:01:53;18.20;99.90
12413;DHT22;13877;18.896;-99.222;2022-07-29T13:04:30;18.20;99.90
12413;DHT22;13877;18.896;-99.222;2022-07-29T13:07:01;18.30;99.90
12413;DHT22;13877;18.896;-99.222;2022-07-29T13:09:42;18.30;99.90
12413;DHT22;13877;18.896;-99.222;2022-07-29T13:12:12;18.30;99.90
12413;DHT22;13877;18.896;-99.222;2022-07-29T13:14:42;18.40;99.90
12413;DHT22;13877;18.896;-99.222;2022-07-29T13:17:16;18.50;99.90
12413;DHT22;13877;18.896;-99.222;2022-07-29T13:19:51;18.40;99.90
12413;DHT22;13877;18.896;-99.222;2022-07-29T13:22:22;18.50;99.90
12413;DHT22;13877;18.896;-99.222;2022-07-29T13:24:57;18.50;99.90
12413;DHT22;13877;18.896;-99.222;2022-07-29T13:27:26;18.60;99.90
12413;DHT22;13877;18.896;-99.222;2022-07-29T13:29:55;18.60;99.90
12413;DHT22;13877;18.896;-99.222;2022-07-29T13:32:27;18.40;99.90
12413;DHT22;13877;18.896;-99.222;2022-07-29T13:34:57;18.40;99.90
12413;DHT22;13877;18.896;-99.222;2022-07-29T13:37:25;18.60;99.90
12413;DHT22;13877;18.896;-99.222;2022-07-29T13:39:56;18.70;99.90
12413;DHT22;13877;18.896;-99.222;2022-07-29T13:42:23;18.70;99.90
12413;DHT22;13877;18.896;-99.222;2022-07-29T13:44:51;18.70;99.90
12413;DHT22;13877;18.896;-99.222;2022-07-29T13:47:19;18.70;99.90
12413;DHT22;13877;18.896;-99.222;2022-07-29T13:49:46;18.60;99.90
12413;DHT22;13877;18.896;-99.222;2022-07-29T13:52:13;18.70;99.90
12413;DHT22;13877;18.896;-99.222;2022-07-29T13:54:41;18.70;99.90
12413;DHT22;13877;18.896;-99.222;2022-07-29T13:57:09;18.70;99.90
12413;DHT22;13877;18.896;-99.222;2022-07-29T13:59:37;18.70;99.90
12413;DHT22;13877;18.896;-99.222;2022-07-29T14:02:04;18.80;99.90
12413;DHT22;13877;18.896;-99.222;2022-07-29T14:04:32;18.90;99.90
12413;DHT22;13877;18.896;-99.222;2022-07-29T14:06:59;18.90;99.90
12413;DHT22;13877;18.896;-99.222;2022-07-29T14:09:26;18.90;99.90
12413;DHT22;13877;18.896;-99.222;2022-07-29T14:11:53;18.80;99.90
12413;DHT22;13877;18.896;-99.222;2022-07-29T14:14:20;18.80;99.90
12413;DHT22;13877;18.896;-99.222;2022-07-29T14:16:47;18.90;99.90
12413;DHT22;13877;18.896;-99.222;2022-07-29T14:19:14;19.00;99.90
12413;DHT22;13877;18.896;-99.222;2022-07-29T14:21:41;18.90;99.90
12413;DHT22;13877;18.896;-99.222;2022-07-29T14:24:08;19.10;99.90
12413;DHT22;13877;18.896;-99.222;2022-07-29T14:26:35;19.00;99.90
12413;DHT22;13877;18.896;-99.222;2022-07-29T14:29:01;19.20;99.90
12413;DHT22;13877;18.896;-99.222;2022-07-29T14:31:28;19.20;99.90
12413;DHT22;13877;18.896;-99.222;2022-07-29T14:33:55;19.30;99.90
12413;DHT22;13877;18.896;-99.222;2022-07-29T14:36:22;19.40;99.90
12413;DHT22;13877;18.896;-99.222;2022-07-29T14:38:48;19.50;99.90
12413;DHT22;13877;18.896;-99.222;2022-07-29T14:41:16;19.70;99.90
12413;DHT22;13877;18.896;-99.222;2022-07-29T14:43:43;19.80;99.90
12413;DHT22;13877;18.896;-99.222;2022-07-29T14:46:09;19.90;99.90
12413;DHT22;13877;18.896;-99.222;2022-07-29T14:48:38;19.90;99.90
12413;DHT22;13877;18.896;-99.222;2022-07-29T14:51:05;20.00;99.90
12413;DHT22;13877;18.896;-99.222;2022-07-29T14:53:32;20.10;99.90
12413;DHT22;13877;18.896;-99.222;2022-07-29T14:55:59;20.10;99.90
12413;DHT22;13877;18.896;-99.222;2022-07-29T14:58:25;20.20;99.90
12413;DHT22;13877;18.896;-99.222;2022-07-29T15:01:10;20.40;99.90
12413;DHT22;13877;18.896;-99.222;2022-07-29T15:03:38;20.60;99.90
12413;DHT22;13877;18.896;-99.222;2022-07-29T15:06:04;20.60;99.90
12413;DHT22;13877;18.896;-99.222;2022-07-29T15:08:31;20.90;99.90
12413;DHT22;13877;18.896;-99.222;2022-07-29T15:10:58;21.10;99.90
12413;DHT22;13877;18.896;-99.222;2022-07-29T15:13:26;21.20;99.90
12413;DHT22;13877;18.896;-99.222;2022-07-29T15:15:52;21.20;99.90
12413;DHT22;13877;18.896;-99.222;2022-07-29T15:18:19;21.40;99.90
12413;DHT22;13877;18.896;-99.222;2022-07-29T15:20:46;21.60;99.90
12413;DHT22;13877;18.896;-99.222;2022-07-29T15:23:13;21.40;99.90
12413;DHT22;13877;18.896;-99.222;2022-07-29T15:25:40;21.60;99.90
12413;DHT22;13877;18.896;-99.222;2022-07-29T15:28:07;22.00;99.90
12413;DHT22;13877;18.896;-99.222;2022-07-29T15:30:35;22.40;99.90
12413;DHT22;13877;18.896;-99.222;2022-07-29T15:33:08;22.60;99.90
12413;DHT22;13877;18.896;-99.222;2022-07-29T15:35:36;23.10;99.90
12413;DHT22;13877;18.896;-99.222;2022-07-29T15:38:03;23.40;99.90
12413;DHT22;13877;18.896;-99.222;2022-07-29T15:40:30;23.20;99.90
12413;DHT22;13877;18.896;-99.222;2022-07-29T15:42:58;23.50;99.90
12413;DHT22;13877;18.896;-99.222;2022-07-29T15:45:39;23.70;99.90
12413;DHT22;13877;18.896;-99.222;2022-07-29T15:48:07;24.30;99.90
12413;DHT22;13877;18.896;-99.222;2022-07-29T15:50:34;24.40;99.90
12413;DHT22;13877;18.896;-99.222;2022-07-29T15:53:02;25.00;99.90
12413;DHT22;13877;18.896;-99.222;2022-07-29T15:55:29;25.60;99.90
12413;DHT22;13877;18.896;-99.222;2022-07-29T15:57:56;25.80;99.90
12413;DHT22;13877;18.896;-99.222;2022-07-29T16:00:23;25.50;99.90
12413;DHT22;13877;18.896;-99.222;2022-07-29T16:02:50;25.70;99.50
12413;DHT22;13877;18.896;-99.222;2022-07-29T16:05:17;25.50;98.60